sensor_id;sensor_type;location;lat;lon;timestamp;temperature;humidity
18948;DHT22;9607;51.600;7.558;2023-05-10T00:00:12;13.40;99.90
18948;DHT22;9607;51.600;7.558;2023-05-10T00:02:39;13.50;99.90
18948;DHT22;9607;51.600;7.558;2023-05-10T00:05:08;13.50;99.90
18948;DHT22;9607;51.600;7.558;2023-05-10T00:07:34;13.50;99.90
18948;DHT22;9607;51.600;7.558;2023-05-10T00:10:01;13.50;99.90
18948;DHT22;9607;51.600;7.558;2023-05-10T00:12:28;13.50;99.90
18948;DHT22;9607;51.600;7.558;2023-05-10T00:14:55;13.50;99.90
18948;DHT22;9607;51.600;7.558;2023-05-10T00:17:23;13.40;99.90
18948;DHT22;9607;51.600;7.558;2023-05-10T00:19:50;13.50;99.90
18948;DHT22;9607;51.600;7.558;2023-05-10T00:22:17;13.50;99.90
18948;DHT22;9607;51.600;7.558;2023-05-10T00:24:43;13.50;99.90
18948;DHT22;9607;51.600;7.558;2023-05-10T00:27:10;13.40;99.90
18948;DHT22;9607;51.600;7.558;2023-05-10T00:29:37;13.50;99.90
18948;DHT22;9607;51.600;7.558;2023-05-10T00:32:05;13.50;99.90
18948;DHT22;9607;51.600;7.558;2023-05-10T00:34:33;13.50;99.90
18948;DHT22;9607;51.600;7.558;2023-05-10T00:37:00;13.50;99.90
18948;DHT22;9607;51.600;7.558;2023-05-10T00:39:27;13.50;99.90
18948;DHT22;9607;51.600;7.558;2023-05-10T00:41:54;13.50;99.90
18948;DHT22;9607;51.600;7.558;2023-05-10T00:44:21;13.40;99.90
18948;DHT22;9607;51.600;7.558;2023-05-10T00:46:48;13.40;99.90
18948;DHT22;9607;51.600;7.558;2023-05-10T00:49:16;13.40;99.90
18948;DHT22;9607;51.600;7.558;2023-05-10T00:51:44;13.30;99.90
18948;DHT22;9607;51.600;7.558;2023-05-10T00:54:12;13.30;99.90
18948;DHT22;9607;51.600;7.558;2023-05-10T00:56:40;13.30;99.90
18948;DHT22;9607;51.600;7.558;2023-05-10T00:59:09;13.30;99.90
18948;DHT22;9607;51.600;7.558;2023-05-10T01:01:36;13.20;99.90
18948;DHT22;9607;51.600;7.558;2023-05-10T01:04:04;13.20;99.90
18948;DHT22;9607;51.600;7.558;2023-05-10T01:06:31;13.20;99.90
18948;DHT22;9607;51.600;7.558;2023-05-10T01:08:59;13.10;99.90
18948;DHT22;9607;51.600;7.558;2023-05-10T01:11:26;13.10;99.90
18948;DHT22;9607;51.600;7.558;2023-05-10T01:13:56;13.10;99.90
18948;DHT22;9607;51.600;7.558;2023-05-10T01:16:23;13.10;99.90
18948;DHT22;9607;51.600;7.558;2023-05-10T01:18:51;13.10;99.90
18948;DHT22;9607;51.600;7.558;2023-05-10T01:21:23;13.20;99.90
18948;DHT22;9607;51.600;7.558;2023-05-10T01:24:17;13.10;99.90
18948;DHT22;9607;51.600;7.558;2023-05-10T01:27:19;13.10;99.90
18948;DHT22;9607;51.600;7.558;2023-05-10T01:30:08;13.10;99.90
18948;DHT22;9607;51.600;7.558;2023-05-10T01:32:45;13.10;99.90
18948;DHT22;9607;51.600;7.558;2023-05-10T01:35:18;13.10;99.90
18948;DHT22;9607;51.600;7.558;2023-05-10T01:37:49;13.10;99.90
18948;DHT22;9607;51.600;7.558;2023-05-10T01:40:21;13.20;99.90
18948;DHT22;9607;51.600;7.558;2023-05-10T01:42:53;13.10;99.90
18948;DHT22;9607;51.600;7.558;2023-05-10T01:45:30;13.20;99.90
18948;DHT22;9607;51.600;7.558;2023-05-10T01:48:05;13.20;99.90
18948;DHT22;9607;51.600;7.558;2023-05-10T01:50:32;13.20;99.90
18948;DHT22;9607;51.600;7.558;2023-05-10T01:53:02;13.20;99.90
18948;DHT22;9607;51.600;7.558;2023-05-10T01:55:32;13.20;99.90
18948;DHT22;9607;51.600;7.558;2023-05-10T01:58:04;13.20;99.90
18948;DHT22;9607;51.600;7.558;2023-05-10T02:00:32;13.20;99.90
18948;DHT22;9607;51.600;7.558;2023-05-10T02:03:05;13.20;99.90
18948;DHT22;9607;51.600;7.558;2023-05-10T02:05:33;13.20;99.90
18948;DHT22;9607;51.600;7.558;2023-05-10T02:08:01;13.20;99.90
18948;DHT22;9607;51.600;7.558;2023-05-10T02:10:29;13.20;99.90
18948;DHT22;9607;51.600;7.558;2023-05-10T02:12:58;13.20;99.90
18948;DHT22;9607;51.600;7.558;2023-05-10T02:15:26;13.20;99.90
18948;DHT22;9607;51.600;7.558;2023-05-10T02:17:55;13.20;99.90
18948;DHT22;9607;51.600;7.558;2023-05-10T02:20:25;13.10;99.90
18948;DHT22;9607;51.600;7.558;2023-05-10T02:22:54;13.10;99.90
18948;DHT22;9607;51.600;7.558;2023-05-10T02:25:23;13.00;99.90
18948;DHT22;9607;51.600;7.558;2023-05-10T02:27:51;13.00;99.90
18948;DHT22;9607;51.600;7.558;2023-05-10T02:30:20;13.00;99.90
18948;DHT22;9607;51.600;7.558;2023-05-10T02:32:49;12.90;99.90
18948;DHT22;9607;51.600;7.558;2023-05-10T02:35:16;12.90;99.90
18948;DHT22;9607;51.600;7.558;2023-05-10T02:37:45;12.90;99.90
18948;DHT22;9607;51.600;7.558;2023-05-10T02:40:14;12.80;99.90
18948;DHT22;9607;51.600;7.558;2023-05-10T02:42:42;12.70;99.90
18948;DHT22;9607;51.600;7.558;2023-05-10T02:45:13;12.70;99.90
18948;DHT22;9607;51.600;7.558;2023-05-10T02:47:41;12.60;99.90
18948;DHT22;9607;51.600;7.558;2023-05-10T02:50:09;12.60;99.90
18948;DHT22;9607;51.600;7.558;2023-05-10T02:52:40;12.60;99.90
18948;DHT22;9607;51.600;7.558;2023-05-10T02:55:11;12.50;99.90
18948;DHT22;9607;51.600;7.558;2023-05-10T02:57:43;12.50;99.90
18948;DHT22;9607;51.600;7.558;2023-05-10T03:00:13;12.40;99.90
18948;DHT22;9607;51.600;7.558;2023-05-10T03:02:40;12.40;99.90
18948;DHT22;9607;51.600;7.558;2023-05-10T03:05:07;12.40;99.90
18948;DHT22;9607;51.600;7.558;2023-05-10T03:07:34;12.40;99.90
18948;DHT22;9607;51.600;7.558;2023-05-10T03:10:02;12.30;99.90
18948;DHT22;9607;51.600;7.558;2023-05-10T03:12:41;12.30;99.90
18948;DHT22;9607;51.600;7.558;2023-05-10T03:15:17;12.30;99.90
18948;DHT22;9607;51.600;7.558;2023-05-10T03:17:48;12.30;99.90
18948;DHT22;9607;51.600;7.558;2023-05-10T03:20:22;12.20;99.90
18948;DHT22;9607;51.600;7.558;2023-05-10T03:22:53;12.20;99.90
18948;DHT22;9607;51.600;7.558;2023-05-10T03:25:23;12.20;99.90
18948;DHT22;9607;51.600;7.558;2023-05-10T03:27:52;12.10;99.90
18948;DHT22;9607;51.600;7.558;2023-05-10T03:30:19;12.10;99.90
18948;DHT22;9607;51.600;7.558;2023-05-10T03:32:46;12.10;99.90
18948;DHT22;9607;51.600;7.558;2023-05-10T03:35:13;12.10;99.90
18948;DHT22;9607;51.600;7.558;2023-05-10T03:37:40;12.10;99.90
18948;DHT22;9607;51.600;7.558;2023-05-10T03:40:08;12.20;99.90
18948;DHT22;9607;51.600;7.558;2023-05-10T03:42:35;12.20;99.90
18948;DHT22;9607;51.600;7.558;2023-05-10T03:45:04;12.20;99.90
18948;DHT22;9607;51.600;7.558;2023-05-10T03:47:31;12.20;99.90
18948;DHT22;9607;51.600;7.558;2023-05-10T03:49:58;12.30;99.90
18948;DHT22;9607;51.600;7.558;2023-05-10T03:52:25;12.30;99.90
18948;DHT22;9607;51.600;7.558;2023-05-10T03:54:52;12.30;99.90
18948;DHT22;9607;51.600;7.558;2023-05-10T03:57:18;12.30;99.90
18948;DHT22;9607;51.600;7.558;2023-05-10T03:59:45;12.30;99.90
18948;DHT22;9607;51.600;7.558;2023-05-10T04:02:13;12.30;99.90
18948;DHT22;9607;51.600;7.558;2023-05-10T04:04:40;12.40;99.90
18948;DHT22;9607;51.600;7.558;2023-05-10T04:07:07;12.40;99.90
18948;DHT22;9607;51.600;7.558;2023-05-10T04:09:35;12.40;99.90
18948;DHT22;9607;51.600;7.558;2023-05-10T04:12:02;12.40;99.90
18948;DHT22;9607;51.600;7.558;2023-05-10T04:14:29;12.40;99.90
18948;DHT22;9607;51.600;7.558;2023-05-10T04:16:56;12.50;99.90
18948;DHT22;9607;51.600;7.558;2023-05-10T04:19:29;12.50;99.90
18948;DHT22;9607;51.600;7.558;2023-05-10T04:21:56;12.50;99.90
18948;DHT22;9607;51.600;7.558;2023-05-10T04:24:23;12.50;99.90
18948;DHT22;9607;51.600;7.558;2023-05-10T04:26:50;12.50;99.90
18948;DHT22;9607;51.600;7.558;2023-05-10T04:29:17;12.60;99.90
18948;DHT22;9607;51.600;7.558;2023-05-10T04:31:44;12.60;99.90
18948;DHT22;9607;51.600;7.558;2023-05-10T04:34:11;12.60;99.90
18948;DHT22;9607;51.600;7.558;2023-05-10T04:36:39;12.60;99.90
18948;DHT22;9607;51.600;7.558;2023-05-10T04:39:06;12.60;99.90
18948;DHT22;9607;51.600;7.558;2023-05-10T04:41:32;12.70;99.90
18948;DHT22;9607;51.600;7.558;2023-05-10T04:43:59;12.70;99.90
18948;DHT22;9607;51.600;7.558;2023-05-10T04:46:26;12.80;99.90
18948;DHT22;9607;51.600;7.558;2023-05-10T04:48:53;12.80;99.90
18948;DHT22;9607;51.600;7.558;2023-05-10T04:51:20;12.80;99.90
18948;DHT22;9607;51.600;7.558;2023-05-10T04:53:48;12.80;99.90
18948;DHT22;9607;51.600;7.558;2023-05-10T04:56:16;12.80;99.90
18948;DHT22;9607;51.600;7.558;2023-05-10T04:58:42;12.80;99.90
18948;DHT22;9607;51.600;7.558;2023-05-10T05:01:09;12.80;99.90
18948;DHT22;9607;51.600;7.558;2023-05-10T05:03:36;12.90;99.90
18948;DHT22;9607;51.600;7.558;2023-05-10T05:06:04;12.90;99.90
18948;DHT22;9607;51.600;7.558;2023-05-10T05:08:30;12.90;99.90
18948;DHT22;9607;51.600;7.558;2023-05-10T05:10:59;12.90;99.90
18948;DHT22;9607;51.600;7.558;2023-05-10T05:13:26;12.90;99.90
18948;DHT22;9607;51.600;7.558;2023-05-10T05:15:53;12.90;99.90
18948;DHT22;9607;51.600;7.558;2023-05-10T05:18:20;12.90;99.90
18948;DHT22;9607;51.600;7.558;2023-05-10T05:20:46;12.90;99.90
18948;DHT22;9607;51.600;7.558;2023-05-10T05:23:13;12.90;99.90
18948;DHT22;9607;51.600;7.558;2023-05-10T05:25:40;13.00;99.90
18948;DHT22;9607;51.600;7.558;2023-05-10T05:28:08;13.00;99.90
18948;DHT22;9607;51.600;7.558;2023-05-10T05:30:35;13.10;99.90
18948;DHT22;9607;51.600;7.558;2023-05-10T05:33:02;13.10;99.90
18948;DHT22;9607;51.600;7.558;2023-05-10T05:35:29;13.10;99.90
18948;DHT22;9607;51.600;7.558;2023-05-10T05:37:56;13.20;99.90
18948;DHT22;9607;51.600;7.558;2023-05-10T05:40:23;13.20;99.90
18948;DHT22;9607;51.600;7.558;2023-05-10T05:42:50;13.20;99.90
18948;DHT22;9607;51.600;7.558;2023-05-10T05:45:18;13.30;99.90
18948;DHT22;9607;51.600;7.558;2023-05-10T05:47:45;13.30;99.90
18948;DHT22;9607;51.600;7.558;2023-05-10T05:50:12;13.40;99.90
18948;DHT22;9607;51.600;7.558;2023-05-10T05:52:39;13.40;99.90
18948;DHT22;9607;51.600;7.558;2023-05-10T05:55:06;13.40;99.90
18948;DHT22;9607;51.600;7.558;2023-05-10T05:57:33;13.50;99.90
18948;DHT22;9607;51.600;7.558;2023-05-10T06:00:00;13.60;99.90
18948;DHT22;9607;51.600;7.558;2023-05-10T06:02:29;13.70;99.90
18948;DHT22;9607;51.600;7.558;2023-05-10T06:04:56;13.80;99.90
18948;DHT22;9607;51.600;7.558;2023-05-10T06:07:23;13.80;99.90
18948;DHT22;9607;51.600;7.558;2023-05-10T06:09:50;13.80;99.90
18948;DHT22;9607;51.600;7.558;2023-05-10T06:12:17;13.80;99.90
18948;DHT22;9607;51.600;7.558;2023-05-10T06:14:44;13.80;99.90
18948;DHT22;9607;51.600;7.558;2023-05-10T06:17:11;13.90;99.90
18948;DHT22;9607;51.600;7.558;2023-05-10T06:19:39;13.90;99.90
18948;DHT22;9607;51.600;7.558;2023-05-10T06:22:06;13.90;99.90
18948;DHT22;9607;51.600;7.558;2023-05-10T06:24:32;14.00;99.90
18948;DHT22;9607;51.600;7.558;2023-05-10T06:26:59;14.10;99.90
18948;DHT22;9607;51.600;7.558;2023-05-10T06:29:27;14.20;99.90
18948;DHT22;9607;51.600;7.558;2023-05-10T06:31:54;14.30;99.90
18948;DHT22;9607;51.600;7.558;2023-05-10T06:34:21;14.40;99.90
18948;DHT22;9607;51.600;7.558;2023-05-10T06:36:49;14.50;99.90
18948;DHT22;9607;51.600;7.558;2023-05-10T06:39:16;14.50;99.90
18948;DHT22;9607;51.600;7.558;2023-05-10T06:41:43;14.50;99.90
18948;DHT22;9607;51.600;7.558;2023-05-10T06:44:09;14.50;99.90
18948;DHT22;9607;51.600;7.558;2023-05-10T06:46:36;14.40;99.90
18948;DHT22;9607;51.600;7.558;2023-05-10T06:49:03;14.40;99.90
18948;DHT22;9607;51.600;7.558;2023-05-10T06:51:31;14.30;99.90
18948;DHT22;9607;51.600;7.558;2023-05-10T06:54:00;14.40;99.90
18948;DHT22;9607;51.600;7.558;2023-05-10T06:56:27;14.50;99.90
18948;DHT22;9607;51.600;7.558;2023-05-10T06:58:54;14.50;99.90
18948;DHT22;9607;51.600;7.558;2023-05-10T07:01:21;14.60;99.90
18948;DHT22;9607;51.600;7.558;2023-05-10T07:03:48;14.80;99.90
18948;DHT22;9607;51.600;7.558;2023-05-10T07:06:14;14.90;99.90
18948;DHT22;9607;51.600;7.558;2023-05-10T07:08:41;15.00;99.90
18948;DHT22;9607;51.600;7.558;2023-05-10T07:11:09;15.20;99.90
18948;DHT22;9607;51.600;7.558;2023-05-10T07:13:36;15.50;99.90
18948;DHT22;9607;51.600;7.558;2023-05-10T07:16:04;15.60;99.90
18948;DHT22;9607;51.600;7.558;2023-05-10T07:18:32;15.60;99.90
18948;DHT22;9607;51.600;7.558;2023-05-10T07:20:59;15.70;99.90
18948;DHT22;9607;51.600;7.558;2023-05-10T07:23:25;15.80;99.90
18948;DHT22;9607;51.600;7.558;2023-05-10T07:25:52;15.80;99.90
18948;DHT22;9607;51.600;7.558;2023-05-10T07:28:21;15.80;99.90
18948;DHT22;9607;51.600;7.558;2023-05-10T07:30:49;15.70;99.90
18948;DHT22;9607;51.600;7.558;2023-05-10T07:33:16;15.80;99.90
18948;DHT22;9607;51.600;7.558;2023-05-10T07:35:43;15.80;99.90
18948;DHT22;9607;51.600;7.558;2023-05-10T07:38:10;16.00;99.90
18948;DHT22;9607;51.600;7.558;2023-05-10T07:40:39;16.10;99.90
18948;DHT22;9607;51.600;7.558;2023-05-10T07:43:05;16.20;99.90
18948;DHT22;9607;51.600;7.558;2023-05-10T07:45:34;16.30;99.90
18948;DHT22;9607;51.600;7.558;2023-05-10T07:48:01;16.40;99.90
18948;DHT22;9607;51.600;7.558;2023-05-10T07:50:28;16.50;99.90
18948;DHT22;9607;51.600;7.558;2023-05-10T07:52:55;16.50;99.90
18948;DHT22;9607;51.600;7.558;2023-05-10T07:55:22;16.50;99.90
18948;DHT22;9607;51.600;7.558;2023-05-10T07:57:49;16.40;99.90
18948;DHT22;9607;51.600;7.558;2023-05-10T08:00:18;16.40;99.90
18948;DHT22;9607;51.600;7.558;2023-05-10T08:02:47;16.40;99.90
18948;DHT22;9607;51.600;7.558;2023-05-10T08:05:14;16.40;99.90
18948;DHT22;9607;51.600;7.558;2023-05-10T08:07:41;16.30;99.90
18948;DHT22;9607;51.600;7.558;2023-05-10T08:10:09;16.30;99.90
18948;DHT22;9607;51.600;7.558;2023-05-10T08:12:36;16.30;99.90
18948;DHT22;9607;51.600;7.558;2023-05-10T08:15:05;16.20;99.90
18948;DHT22;9607;51.600;7.558;2023-05-10T08:17:32;16.30;99.90
18948;DHT22;9607;51.600;7.558;2023-05-10T08:20:01;16.40;99.90
18948;DHT22;9607;51.600;7.558;2023-05-10T08:22:28;16.50;99.90
18948;DHT22;9607;51.600;7.558;2023-05-10T08:24:55;16.70;99.90
18948;DHT22;9607;51.600;7.558;2023-05-10T08:27:21;17.00;99.90
18948;DHT22;9607;51.600;7.558;2023-05-10T08:29:48;17.20;99.90
18948;DHT22;9607;51.600;7.558;2023-05-10T08:32:15;17.40;99.90
18948;DHT22;9607;51.600;7.558;2023-05-10T08:34:42;17.50;99.90
18948;DHT22;9607;51.600;7.558;2023-05-10T08:37:10;17.50;99.90
18948;DHT22;9607;51.600;7.558;2023-05-10T08:39:38;17.40;99.90
18948;DHT22;9607;51.600;7.558;2023-05-10T08:42:05;17.30;99.90
18948;DHT22;9607;51.600;7.558;2023-05-10T08:44:34;17.30;99.90
18948;DHT22;9607;51.600;7.558;2023-05-10T08:47:04;17.30;99.90
18948;DHT22;9607;51.600;7.558;2023-05-10T08:49:32;17.40;99.90
18948;DHT22;9607;51.600;7.558;2023-05-10T08:52:02;17.50;99.90
18948;DHT22;9607;51.600;7.558;2023-05-10T08:54:33;17.60;99.90
18948;DHT22;9607;51.600;7.558;2023-05-10T08:57:00;17.80;99.90
18948;DHT22;9607;51.600;7.558;2023-05-10T08:59:27;18.10;99.90
18948;DHT22;9607;51.600;7.558;2023-05-10T09:01:56;18.10;99.90
18948;DHT22;9607;51.600;7.558;2023-05-10T09:04:24;17.90;99.90
18948;DHT22;9607;51.600;7.558;2023-05-10T09:06:51;17.70;99.90
18948;DHT22;9607;51.600;7.558;2023-05-10T09:09:19;17.50;99.90
18948;DHT22;9607;51.600;7.558;2023-05-10T09:11:48;17.30;99.90
18948;DHT22;9607;51.600;7.558;2023-05-10T09:14:15;17.30;99.90
18948;DHT22;9607;51.600;7.558;2023-05-10T09:16:42;17.40;99.90
18948;DHT22;9607;51.600;7.558;2023-05-10T09:19:10;17.40;99.90
18948;DHT22;9607;51.600;7.558;2023-05-10T09:21:37;17.50;99.90
18948;DHT22;9607;51.600;7.558;2023-05-10T09:24:05;17.60;99.90
18948;DHT22;9607;51.600;7.558;2023-05-10T09:26:32;17.90;99.90
18948;DHT22;9607;51.600;7.558;2023-05-10T09:29:03;18.30;99.90
18948;DHT22;9607;51.600;7.558;2023-05-10T09:31:47;18.80;99.90
18948;DHT22;9607;51.600;7.558;2023-05-10T09:34:17;19.00;99.90
18948;DHT22;9607;51.600;7.558;2023-05-10T09:36:52;19.10;99.90
18948;DHT22;9607;51.600;7.558;2023-05-10T09:39:20;19.10;99.90
18948;DHT22;9607;51.600;7.558;2023-05-10T09:41:47;19.20;99.90
18948;DHT22;9607;51.600;7.558;2023-05-10T09:44:18;19.10;99.90
18948;DHT22;9607;51.600;7.558;2023-05-10T09:46:49;19.00;99.90
18948;DHT22;9607;51.600;7.558;2023-05-10T09:49:19;18.70;99.90
18948;DHT22;9607;51.600;7.558;2023-05-10T09:51:46;18.50;99.90
18948;DHT22;9607;51.600;7.558;2023-05-10T09:54:14;18.40;99.90
18948;DHT22;9607;51.600;7.558;2023-05-10T09:56:42;18.30;99.90
18948;DHT22;9607;51.600;7.558;2023-05-10T09:59:11;18.30;99.90
18948;DHT22;9607;51.600;7.558;2023-05-10T10:01:40;18.40;99.90
18948;DHT22;9607;51.600;7.558;2023-05-10T10:04:09;18.40;99.90
18948;DHT22;9607;51.600;7.558;2023-05-10T10:06:36;18.50;99.90
18948;DHT22;9607;51.600;7.558;2023-05-10T10:09:04;18.50;99.90
18948;DHT22;9607;51.600;7.558;2023-05-10T10:11:33;18.60;99.90
18948;DHT22;9607;51.600;7.558;2023-05-10T10:14:00;18.60;99.90
18948;DHT22;9607;51.600;7.558;2023-05-10T10:16:28;18.50;99.90
18948;DHT22;9607;51.600;7.558;2023-05-10T10:18:57;18.50;99.90
18948;DHT22;9607;51.600;7.558;2023-05-10T10:21:24;18.30;99.90
18948;DHT22;9607;51.600;7.558;2023-05-10T10:23:52;18.20;99.90
18948;DHT22;9607;51.600;7.558;2023-05-10T10:26:19;18.30;99.90
18948;DHT22;9607;51.600;7.558;2023-05-10T10:28:51;18.40;99.90
18948;DHT22;9607;51.600;7.558;2023-05-10T10:31:26;18.70;99.90
18948;DHT22;9607;51.600;7.558;2023-05-10T10:34:00;19.00;99.90
18948;DHT22;9607;51.600;7.558;2023-05-10T10:36:28;19.30;99.90
18948;DHT22;9607;51.600;7.558;2023-05-10T10:39:00;19.60;99.90
18948;DHT22;9607;51.600;7.558;2023-05-10T10:41:29;19.90;99.90
18948;DHT22;9607;51.600;7.558;2023-05-10T10:44:33;20.00;99.90
18948;DHT22;9607;51.600;7.558;2023-05-10T10:47:06;20.10;99.90
18948;DHT22;9607;51.600;7.558;2023-05-10T10:49:43;20.20;99.90
18948;DHT22;9607;51.600;7.558;2023-05-10T10:52:24;20.20;99.90
18948;DHT22;9607;51.600;7.558;2023-05-10T10:54:58;20.00;99.90
18948;DHT22;9607;51.600;7.558;2023-05-10T10:57:26;19.90;99.90
18948;DHT22;9607;51.600;7.558;2023-05-10T11:00:26;19.90;99.90
18948;DHT22;9607;51.600;7.558;2023-05-10T11:02:56;19.80;99.90
18948;DHT22;9607;51.600;7.558;2023-05-10T11:05:36;19.80;99.90
18948;DHT22;9607;51.600;7.558;2023-05-10T11:08:12;19.80;99.90
18948;DHT22;9607;51.600;7.558;2023-05-10T11:10:40;19.90;99.90
18948;DHT22;9607;51.600;7.558;2023-05-10T11:13:08;20.10;99.90
18948;DHT22;9607;51.600;7.558;2023-05-10T11:15:37;20.40;99.90
18948;DHT22;9607;51.600;7.558;2023-05-10T11:18:17;20.60;99.90
18948;DHT22;9607;51.600;7.558;2023-05-10T11:20:50;20.20;99.90
18948;DHT22;9607;51.600;7.558;2023-05-10T11:23:18;19.50;99.90
18948;DHT22;9607;51.600;7.558;2023-05-10T11:25:48;19.00;99.90
18948;DHT22;9607;51.600;7.558;2023-05-10T11:28:17;18.50;99.90
18948;DHT22;9607;51.600;7.558;2023-05-10T11:30:44;18.20;99.90
18948;DHT22;9607;51.600;7.558;2023-05-10T11:33:16;17.90;99.90
18948;DHT22;9607;51.600;7.558;2023-05-10T11:35:43;17.70;99.90
18948;DHT22;9607;51.600;7.558;2023-05-10T11:38:12;17.70;99.90
18948;DHT22;9607;51.600;7.558;2023-05-10T11:40:40;17.80;99.90
18948;DHT22;9607;51.600;7.558;2023-05-10T11:43:09;18.10;99.90
18948;DHT22;9607;51.600;7.558;2023-05-10T11:45:40;18.40;99.90
18948;DHT22;9607;51.600;7.558;2023-05-10T11:48:07;18.80;99.90
18948;DHT22;9607;51.600;7.558;2023-05-10T11:50:34;19.10;99.90
18948;DHT22;9607;51.600;7.558;2023-05-10T11:53:01;19.60;99.90
18948;DHT22;9607;51.600;7.558;2023-05-10T11:55:30;19.80;99.90
18948;DHT22;9607;51.600;7.558;2023-05-10T11:58:01;19.90;99.90
18948;DHT22;9607;51.600;7.558;2023-05-10T12:00:28;20.10;99.90
18948;DHT22;9607;51.600;7.558;2023-05-10T12:02:56;20.20;99.90
18948;DHT22;9607;51.600;7.558;2023-05-10T12:05:23;20.60;99.90
18948;DHT22;9607;51.600;7.558;2023-05-10T12:07:50;20.70;99.90
18948;DHT22;9607;51.600;7.558;2023-05-10T12:10:25;20.40;99.90
18948;DHT22;9607;51.600;7.558;2023-05-10T12:12:53;20.40;99.90
18948;DHT22;9607;51.600;7.558;2023-05-10T12:15:22;20.60;99.90
18948;DHT22;9607;51.600;7.558;2023-05-10T12:17:50;20.70;99.90
18948;DHT22;9607;51.600;7.558;2023-05-10T12:20:18;20.90;99.90
18948;DHT22;9607;51.600;7.558;2023-05-10T12:22:47;21.40;99.90
18948;DHT22;9607;51.600;7.558;2023-05-10T12:25:15;21.70;99.90
18948;DHT22;9607;51.600;7.558;2023-05-10T12:27:48;21.10;99.90
18948;DHT22;9607;51.600;7.558;2023-05-10T12:30:21;20.80;99.90
18948;DHT22;9607;51.600;7.558;2023-05-10T12:32:48;20.60;99.90
18948;DHT22;9607;51.600;7.558;2023-05-10T12:35:15;20.60;99.90
18948;DHT22;9607;51.600;7.558;2023-05-10T12:37:43;20.60;99.90
18948;DHT22;9607;51.600;7.558;2023-05-10T12:40:11;20.60;99.90
18948;DHT22;9607;51.600;7.558;2023-05-10T12:42:39;20.70;99.90
18948;DHT22;9607;51.600;7.558;2023-05-10T12:45:07;20.70;99.90
18948;DHT22;9607;51.600;7.558;2023-05-10T12:47:36;21.00;99.90
18948;DHT22;9607;51.600;7.558;2023-05-10T12:50:05;21.20;99.90
18948;DHT22;9607;51.600;7.558;2023-05-10T12:52:32;21.20;99.90
18948;DHT22;9607;51.600;7.558;2023-05-10T12:55:00;21.30;99.90
18948;DHT22;9607;51.600;7.558;2023-05-10T12:57:26;21.60;99.90
18948;DHT22;9607;51.600;7.558;2023-05-10T12:59:54;21.60;99.90
18948;DHT22;9607;51.600;7.558;2023-05-10T13:02:21;21.50;99.90
18948;DHT22;9607;51.600;7.558;2023-05-10T13:04:50;21.40;99.90
18948;DHT22;9607;51.600;7.558;2023-05-10T13:07:16;21.10;99.90
18948;DHT22;9607;51.600;7.558;2023-05-10T13:09:43;20.90;99.90
18948;DHT22;9607;51.600;7.558;2023-05-10T13:12:10;21.10;99.90
18948;DHT22;9607;51.600;7.558;2023-05-10T13:14:37;21.10;99.90
18948;DHT22;9607;51.600;7.558;2023-05-10T13:17:06;21.40;99.90
18948;DHT22;9607;51.600;7.558;2023-05-10T13:19:33;22.00;99.90
18948;DHT22;9607;51.600;7.558;2023-05-10T13:22:01;22.40;99.90
18948;DHT22;9607;51.600;7.558;2023-05-10T13:24:28;22.60;99.90
18948;DHT22;9607;51.600;7.558;2023-05-10T13:26:55;22.70;99.90
18948;DHT22;9607;51.600;7.558;2023-05-10T13:29:21;23.00;99.90
18948;DHT22;9607;51.600;7.558;2023-05-10T13:31:48;23.00;99.90
18948;DHT22;9607;51.600;7.558;2023-05-10T13:34:15;22.80;99.90
18948;DHT22;9607;51.600;7.558;2023-05-10T13:36:42;22.40;99.80
18948;DHT22;9607;51.600;7.558;2023-05-10T13:39:10;22.20;99.90
18948;DHT22;9607;51.600;7.558;2023-05-10T13:41:37;22.40;99.90
18948;DHT22;9607;51.600;7.558;2023-05-10T13:44:04;22.70;99.90
18948;DHT22;9607;51.600;7.558;2023-05-10T13:46:32;23.00;99.90
18948;DHT22;9607;51.600;7.558;2023-05-10T13:48:58;23.20;98.60
18948;DHT22;9607;51.600;7.558;2023-05-10T13:51:25;23.20;98.10
18948;DHT22;9607;51.600;7.558;2023-05-10T13:53:52;22.80;97.00
18948;DHT22;9607;51.600;7.558;2023-05-10T13:56:20;22.30;98.00
18948;DHT22;9607;51.600;7.558;2023-05-10T13:58:47;21.90;99.70
18948;DHT22;9607;51.600;7.558;2023-05-10T14:01:13;21.40;99.90
18948;DHT22;9607;51.600;7.558;2023-05-10T14:03:40;21.20;99.90
18948;DHT22;9607;51.600;7.558;2023-05-10T14:06:08;21.20;99.90
18948;DHT22;9607;51.600;7.558;2023-05-10T14:08:35;21.20;99.90
18948;DHT22;9607;51.600;7.558;2023-05-10T14:11:02;21.40;99.90
18948;DHT22;9607;51.600;7.558;2023-05-10T14:13:30;21.70;99.90
18948;DHT22;9607;51.600;7.558;2023-05-10T14:15:57;22.30;99.90
18948;DHT22;9607;51.600;7.558;2023-05-10T14:18:25;22.50;99.90
18948;DHT22;9607;51.600;7.558;2023-05-10T14:20:52;22.90;99.20
18948;DHT22;9607;51.600;7.558;2023-05-10T14:23:21;23.20;98.90
18948;DHT22;9607;51.600;7.558;2023-05-10T14:25:49;23.10;97.10
18948;DHT22;9607;51.600;7.558;2023-05-10T14:28:16;23.00;95.20
18948;DHT22;9607;51.600;7.558;2023-05-10T14:30:45;23.00;96.60
18948;DHT22;9607;51.600;7.558;2023-05-10T14:33:12;23.10;96.70
18948;DHT22;9607;51.600;7.558;2023-05-10T14:35:39;23.50;96.50
18948;DHT22;9607;51.600;7.558;2023-05-10T14:38:06;23.70;93.10
18948;DHT22;9607;51.600;7.558;2023-05-10T14:40:32;23.70;92.60
18948;DHT22;9607;51.600;7.558;2023-05-10T14:42:59;23.90;92.10
18948;DHT22;9607;51.600;7.558;2023-05-10T14:45:26;24.00;91.70
18948;DHT22;9607;51.600;7.558;2023-05-10T14:47:54;24.30;89.70
18948;DHT22;9607;51.600;7.558;2023-05-10T14:50:21;24.60;91.60
18948;DHT22;9607;51.600;7.558;2023-05-10T14:52:48;25.10;88.30
18948;DHT22;9607;51.600;7.558;2023-05-10T14:55:15;25.60;83.70
18948;DHT22;9607;51.600;7.558;2023-05-10T14:57:42;25.80;80.70
18948;DHT22;9607;51.600;7.558;2023-05-10T15:00:13;25.80;80.80
18948;DHT22;9607;51.600;7.558;2023-05-10T15:02:41;25.80;80.50
18948;DHT22;9607;51.600;7.558;2023-05-10T15:05:10;26.00;77.60
18948;DHT22;9607;51.600;7.558;2023-05-10T15:07:37;26.40;72.90
18948;DHT22;9607;51.600;7.558;2023-05-10T15:10:05;26.60;70.80
18948;DHT22;9607;51.600;7.558;2023-05-10T15:12:32;27.20;69.00
18948;DHT22;9607;51.600;7.558;2023-05-10T15:14:59;27.60;64.70
18948;DHT22;9607;51.600;7.558;2023-05-10T15:17:25;28.20;66.20
18948;DHT22;9607;51.600;7.558;2023-05-10T15:19:52;28.90;59.90
18948;DHT22;9607;51.600;7.558;2023-05-10T15:22:20;29.10;59.20
18948;DHT22;9607;51.600;7.558;2023-05-10T15:24:47;29.20;56.70
18948;DHT22;9607;51.600;7.558;2023-05-10T15:27:14;28.80;57.30
18948;DHT22;9607;51.600;7.558;2023-05-10T15:29:41;28.30;56.80
18948;DHT22;9607;51.600;7.558;2023-05-10T15:32:08;27.60;58.60
18948;DHT22;9607;51.600;7.558;2023-05-10T15:34:35;27.00;59.30
18948;DHT22;9607;51.600;7.558;2023-05-10T15:37:02;26.50;61.00
18948;DHT22;9607;51.600;7.558;2023-05-10T15:39:30;26.80;63.10
18948;DHT22;9607;51.600;7.558;2023-05-10T15:41:57;27.10;61.90
18948;DHT22;9607;51.600;7.558;2023-05-10T15:44:24;28.00;60.50
18948;DHT22;9607;51.600;7.558;2023-05-10T15:46:51;29.50;60.80
18948;DHT22;9607;51.600;7.558;2023-05-10T15:49:18;31.30;53.40
18948;DHT22;9607;51.600;7.558;2023-05-10T15:51:44;31.60;47.90